sensor_id;sensor_type;location;lat;lon;timestamp;temperature;humidity
12438;DHT22;6283;51.330;12.374;2023-03-13T00:01:47;8.40;1.00
12438;DHT22;6283;51.330;12.374;2023-03-13T00:04:11;8.40;1.00
12438;DHT22;6283;51.330;12.374;2023-03-13T00:06:39;8.60;1.00
12438;DHT22;6283;51.330;12.374;2023-03-13T00:09:07;8.60;1.00
12438;DHT22;6283;51.330;12.374;2023-03-13T00:11:33;8.50;1.00
12438;DHT22;6283;51.330;12.374;2023-03-13T00:14:01;8.60;1.00
12438;DHT22;6283;51.330;12.374;2023-03-13T00:16:28;8.50;1.00
12438;DHT22;6283;51.330;12.374;2023-03-13T00:18:55;8.60;1.00
12438;DHT22;6283;51.330;12.374;2023-03-13T00:21:23;8.40;1.00
12438;DHT22;6283;51.330;12.374;2023-03-13T00:23:49;8.80;1.00
12438;DHT22;6283;51.330;12.374;2023-03-13T00:26:18;8.60;1.00
12438;DHT22;6283;51.330;12.374;2023-03-13T00:28:44;8.70;1.00
12438;DHT22;6283;51.330;12.374;2023-03-13T00:31:11;8.40;1.00
12438;DHT22;6283;51.330;12.374;2023-03-13T00:33:39;8.70;1.00
12438;DHT22;6283;51.330;12.374;2023-03-13T00:36:13;8.60;1.00
12438;DHT22;6283;51.330;12.374;2023-03-13T00:38:40;8.50;1.00
12438;DHT22;6283;51.330;12.374;2023-03-13T00:41:20;8.60;1.00
12438;DHT22;6283;51.330;12.374;2023-03-13T00:43:47;8.90;1.00
12438;DHT22;6283;51.330;12.374;2023-03-13T00:46:15;8.70;1.00
12438;DHT22;6283;51.330;12.374;2023-03-13T00:48:41;8.70;1.00
12438;DHT22;6283;51.330;12.374;2023-03-13T00:51:08;8.60;1.00
12438;DHT22;6283;51.330;12.374;2023-03-13T00:53:34;8.70;1.00
12438;DHT22;6283;51.330;12.374;2023-03-13T00:56:01;8.70;1.00
12438;DHT22;6283;51.330;12.374;2023-03-13T00:58:29;8.50;1.00
12438;DHT22;6283;51.330;12.374;2023-03-13T01:00:55;8.70;1.00
12438;DHT22;6283;51.330;12.374;2023-03-13T01:03:23;8.60;1.00
12438;DHT22;6283;51.330;12.374;2023-03-13T01:06:00;8.70;1.00
12438;DHT22;6283;51.330;12.374;2023-03-13T01:08:27;8.80;1.00
12438;DHT22;6283;51.330;12.374;2023-03-13T01:11:05;8.90;1.00
12438;DHT22;6283;51.330;12.374;2023-03-13T01:13:31;8.80;1.00
12438;DHT22;6283;51.330;12.374;2023-03-13T01:16:11;8.90;1.00
12438;DHT22;6283;51.330;12.374;2023-03-13T01:18:39;8.80;1.00
12438;DHT22;6283;51.330;12.374;2023-03-13T01:21:06;8.70;1.00
12438;DHT22;6283;51.330;12.374;2023-03-13T01:23:32;8.90;1.00
12438;DHT22;6283;51.330;12.374;2023-03-13T01:25:58;8.80;1.00
12438;DHT22;6283;51.330;12.374;2023-03-13T01:28:25;8.70;1.00
12438;DHT22;6283;51.330;12.374;2023-03-13T01:30:51;8.80;1.00
12438;DHT22;6283;51.330;12.374;2023-03-13T01:33:17;8.70;1.00
12438;DHT22;6283;51.330;12.374;2023-03-13T01:35:43;9.20;1.00
12438;DHT22;6283;51.330;12.374;2023-03-13T01:38:09;8.90;1.00
12438;DHT22;6283;51.330;12.374;2023-03-13T01:40:45;8.90;1.00
12438;DHT22;6283;51.330;12.374;2023-03-13T01:43:20;8.90;1.00
12438;DHT22;6283;51.330;12.374;2023-03-13T01:49:00;8.90;1.00
12438;DHT22;6283;51.330;12.374;2023-03-13T01:51:40;9.20;1.00
12438;DHT22;6283;51.330;12.374;2023-03-13T01:54:13;9.00;1.00
12438;DHT22;6283;51.330;12.374;2023-03-13T01:59:10;9.10;1.00
12438;DHT22;6283;51.330;12.374;2023-03-13T02:01:37;9.20;1.00
12438;DHT22;6283;51.330;12.374;2023-03-13T02:04:04;8.90;1.00
12438;DHT22;6283;51.330;12.374;2023-03-13T02:06:32;9.00;1.00
12438;DHT22;6283;51.330;12.374;2023-03-13T02:09:05;9.10;1.00
12438;DHT22;6283;51.330;12.374;2023-03-13T02:11:47;8.80;1.00
12438;DHT22;6283;51.330;12.374;2023-03-13T02:14:16;8.90;1.00
12438;DHT22;6283;51.330;12.374;2023-03-13T02:16:43;9.20;1.00
12438;DHT22;6283;51.330;12.374;2023-03-13T02:19:19;9.10;1.00
12438;DHT22;6283;51.330;12.374;2023-03-13T02:21:58;9.20;1.00
12438;DHT22;6283;51.330;12.374;2023-03-13T02:24:40;9.00;1.00
12438;DHT22;6283;51.330;12.374;2023-03-13T02:27:10;9.00;1.00
12438;DHT22;6283;51.330;12.374;2023-03-13T02:29:35;8.90;1.00
12438;DHT22;6283;51.330;12.374;2023-03-13T02:32:01;9.10;1.00
12438;DHT22;6283;51.330;12.374;2023-03-13T02:34:29;9.00;1.00
12438;DHT22;6283;51.330;12.374;2023-03-13T02:36:58;8.90;1.00
12438;DHT22;6283;51.330;12.374;2023-03-13T02:39:24;9.20;1.00
12438;DHT22;6283;51.330;12.374;2023-03-13T02:41:50;9.30;1.00
12438;DHT22;6283;51.330;12.374;2023-03-13T02:44:17;8.90;1.00
12438;DHT22;6283;51.330;12.374;2023-03-13T02:46:48;9.10;1.00
12438;DHT22;6283;51.330;12.374;2023-03-13T02:49:28;9.20;1.00
12438;DHT22;6283;51.330;12.374;2023-03-13T02:51:57;9.20;1.00
12438;DHT22;6283;51.330;12.374;2023-03-13T02:54:29;9.20;1.00
12438;DHT22;6283;51.330;12.374;2023-03-13T02:56:58;9.30;1.00
12438;DHT22;6283;51.330;12.374;2023-03-13T02:59:25;9.00;1.00
12438;DHT22;6283;51.330;12.374;2023-03-13T03:01:51;9.30;1.00
12438;DHT22;6283;51.330;12.374;2023-03-13T03:04:18;9.00;1.00
12438;DHT22;6283;51.330;12.374;2023-03-13T03:06:44;8.90;1.00
12438;DHT22;6283;51.330;12.374;2023-03-13T03:09:10;8.90;1.00
12438;DHT22;6283;51.330;12.374;2023-03-13T03:11:36;9.10;1.00
12438;DHT22;6283;51.330;12.374;2023-03-13T03:14:03;9.00;1.00
12438;DHT22;6283;51.330;12.374;2023-03-13T03:16:29;9.10;1.00
12438;DHT22;6283;51.330;12.374;2023-03-13T03:18:54;9.20;1.00
12438;DHT22;6283;51.330;12.374;2023-03-13T03:21:20;9.10;1.00
12438;DHT22;6283;51.330;12.374;2023-03-13T03:23:48;9.30;1.00
12438;DHT22;6283;51.330;12.374;2023-03-13T03:26:14;9.00;1.00
12438;DHT22;6283;51.330;12.374;2023-03-13T03:28:40;9.10;1.00
12438;DHT22;6283;51.330;12.374;2023-03-13T03:31:07;9.30;1.00
12438;DHT22;6283;51.330;12.374;2023-03-13T03:33:34;9.10;1.00
12438;DHT22;6283;51.330;12.374;2023-03-13T03:36:13;9.20;1.00
12438;DHT22;6283;51.330;12.374;2023-03-13T03:38:40;9.20;1.00
12438;DHT22;6283;51.330;12.374;2023-03-13T03:41:06;9.30;1.00
12438;DHT22;6283;51.330;12.374;2023-03-13T03:43:33;9.20;1.00
12438;DHT22;6283;51.330;12.374;2023-03-13T03:45:59;9.10;1.00
12438;DHT22;6283;51.330;12.374;2023-03-13T03:48:24;9.20;1.00
12438;DHT22;6283;51.330;12.374;2023-03-13T03:50:50;9.10;1.00
12438;DHT22;6283;51.330;12.374;2023-03-13T03:53:16;9.50;1.00
12438;DHT22;6283;51.330;12.374;2023-03-13T03:55:44;9.40;1.00
12438;DHT22;6283;51.330;12.374;2023-03-13T03:58:10;9.40;1.00
12438;DHT22;6283;51.330;12.374;2023-03-13T04:00:35;9.20;1.00
12438;DHT22;6283;51.330;12.374;2023-03-13T04:03:01;9.20;1.00
12438;DHT22;6283;51.330;12.374;2023-03-13T04:05:27;9.20;1.00
12438;DHT22;6283;51.330;12.374;2023-03-13T04:07:53;9.50;1.00
12438;DHT22;6283;51.330;12.374;2023-03-13T04:10:19;9.30;1.00
12438;DHT22;6283;51.330;12.374;2023-03-13T04:12:45;9.60;1.00
12438;DHT22;6283;51.330;12.374;2023-03-13T04:15:11;9.30;1.00
12438;DHT22;6283;51.330;12.374;2023-03-13T04:17:37;9.60;1.00
12438;DHT22;6283;51.330;12.374;2023-03-13T04:20:03;9.60;1.00
12438;DHT22;6283;51.330;12.374;2023-03-13T04:22:30;9.40;1.00
12438;DHT22;6283;51.330;12.374;2023-03-13T04:24:55;9.40;1.00
12438;DHT22;6283;51.330;12.374;2023-03-13T04:27:21;9.60;1.00
12438;DHT22;6283;51.330;12.374;2023-03-13T04:29:47;9.50;1.00
12438;DHT22;6283;51.330;12.374;2023-03-13T04:32:12;9.30;1.00
12438;DHT22;6283;51.330;12.374;2023-03-13T04:34:38;9.60;1.00
12438;DHT22;6283;51.330;12.374;2023-03-13T04:37:04;9.50;1.00
12438;DHT22;6283;51.330;12.374;2023-03-13T04:39:29;9.40;1.00
12438;DHT22;6283;51.330;12.374;2023-03-13T04:41:55;9.50;1.00
12438;DHT22;6283;51.330;12.374;2023-03-13T04:44:21;9.30;1.00
12438;DHT22;6283;51.330;12.374;2023-03-13T04:46:47;9.20;1.00
12438;DHT22;6283;51.330;12.374;2023-03-13T04:49:13;9.60;1.00
12438;DHT22;6283;51.330;12.374;2023-03-13T04:51:43;9.50;1.00
12438;DHT22;6283;51.330;12.374;2023-03-13T04:54:09;9.30;1.00
12438;DHT22;6283;51.330;12.374;2023-03-13T04:56:35;9.40;1.00
12438;DHT22;6283;51.330;12.374;2023-03-13T04:59:01;9.30;1.00
12438;DHT22;6283;51.330;12.374;2023-03-13T05:01:27;9.20;1.00
12438;DHT22;6283;51.330;12.374;2023-03-13T05:03:52;9.40;1.00
12438;DHT22;6283;51.330;12.374;2023-03-13T05:06:18;9.40;1.00
12438;DHT22;6283;51.330;12.374;2023-03-13T05:08:43;9.50;1.00
12438;DHT22;6283;51.330;12.374;2023-03-13T05:11:09;9.30;1.00
12438;DHT22;6283;51.330;12.374;2023-03-13T05:13:35;9.20;1.00
12438;DHT22;6283;51.330;12.374;2023-03-13T05:16:01;9.50;1.00
12438;DHT22;6283;51.330;12.374;2023-03-13T05:18:26;9.20;1.00
12438;DHT22;6283;51.330;12.374;2023-03-13T05:20:52;9.20;1.00
12438;DHT22;6283;51.330;12.374;2023-03-13T05:23:18;9.30;1.00
12438;DHT22;6283;51.330;12.374;2023-03-13T05:25:44;9.60;1.00
12438;DHT22;6283;51.330;12.374;2023-03-13T05:28:09;9.40;1.00
12438;DHT22;6283;51.330;12.374;2023-03-13T05:30:35;9.30;1.00
12438;DHT22;6283;51.330;12.374;2023-03-13T05:33:01;9.70;1.00
12438;DHT22;6283;51.330;12.374;2023-03-13T05:35:26;9.50;1.00
12438;DHT22;6283;51.330;12.374;2023-03-13T05:37:52;9.70;1.00
12438;DHT22;6283;51.330;12.374;2023-03-13T05:40:18;9.60;1.00
12438;DHT22;6283;51.330;12.374;2023-03-13T05:42:44;9.50;1.00
12438;DHT22;6283;51.330;12.374;2023-03-13T05:45:10;9.80;1.00
12438;DHT22;6283;51.330;12.374;2023-03-13T05:47:36;9.70;1.00
12438;DHT22;6283;51.330;12.374;2023-03-13T05:50:03;9.60;1.00
12438;DHT22;6283;51.330;12.374;2023-03-13T05:52:29;9.60;1.00
12438;DHT22;6283;51.330;12.374;2023-03-13T05:54:55;9.70;1.00
12438;DHT22;6283;51.330;12.374;2023-03-13T05:57:21;9.70;1.00
12438;DHT22;6283;51.330;12.374;2023-03-13T05:59:47;9.90;1.00
12438;DHT22;6283;51.330;12.374;2023-03-13T06:02:12;9.80;1.00
12438;DHT22;6283;51.330;12.374;2023-03-13T06:04:38;10.10;1.00
12438;DHT22;6283;51.330;12.374;2023-03-13T06:07:04;9.80;1.00
12438;DHT22;6283;51.330;12.374;2023-03-13T06:09:29;9.90;1.00
12438;DHT22;6283;51.330;12.374;2023-03-13T06:11:55;9.90;1.00
12438;DHT22;6283;51.330;12.374;2023-03-13T06:14:21;9.80;1.00
12438;DHT22;6283;51.330;12.374;2023-03-13T06:16:46;9.80;1.00
12438;DHT22;6283;51.330;12.374;2023-03-13T06:19:12;10.10;1.00
12438;DHT22;6283;51.330;12.374;2023-03-13T06:21:38;10.00;1.00
12438;DHT22;6283;51.330;12.374;2023-03-13T06:24:04;10.10;1.00
12438;DHT22;6283;51.330;12.374;2023-03-13T06:26:29;9.90;1.00
12438;DHT22;6283;51.330;12.374;2023-03-13T06:28:55;9.80;1.00
12438;DHT22;6283;51.330;12.374;2023-03-13T06:31:21;9.80;1.00
12438;DHT22;6283;51.330;12.374;2023-03-13T06:33:46;9.80;1.00
12438;DHT22;6283;51.330;12.374;2023-03-13T06:36:12;10.00;1.00
12438;DHT22;6283;51.330;12.374;2023-03-13T06:38:38;10.10;1.00
12438;DHT22;6283;51.330;12.374;2023-03-13T06:41:04;10.10;1.00
12438;DHT22;6283;51.330;12.374;2023-03-13T06:43:29;10.00;1.00
12438;DHT22;6283;51.330;12.374;2023-03-13T06:45:55;9.90;1.00
12438;DHT22;6283;51.330;12.374;2023-03-13T06:48:21;10.00;1.00
12438;DHT22;6283;51.330;12.374;2023-03-13T06:50:47;9.90;1.00
12438;DHT22;6283;51.330;12.374;2023-03-13T06:53:15;9.90;1.00
12438;DHT22;6283;51.330;12.374;2023-03-13T06:55:42;9.90;1.00
12438;DHT22;6283;51.330;12.374;2023-03-13T06:58:08;10.30;1.00
12438;DHT22;6283;51.330;12.374;2023-03-13T07:00:33;10.00;1.00
12438;DHT22;6283;51.330;12.374;2023-03-13T07:02:59;10.30;1.00
12438;DHT22;6283;51.330;12.374;2023-03-13T07:05:25;10.20;1.00
12438;DHT22;6283;51.330;12.374;2023-03-13T07:07:50;10.30;1.00
12438;DHT22;6283;51.330;12.374;2023-03-13T07:10:16;10.10;1.00
12438;DHT22;6283;51.330;12.374;2023-03-13T07:12:41;10.50;1.00
12438;DHT22;6283;51.330;12.374;2023-03-13T07:15:09;10.40;1.00
12438;DHT22;6283;51.330;12.374;2023-03-13T07:17:35;10.30;1.00
12438;DHT22;6283;51.330;12.374;2023-03-13T07:20:02;10.50;1.00
12438;DHT22;6283;51.330;12.374;2023-03-13T07:22:29;10.60;1.00
12438;DHT22;6283;51.330;12.374;2023-03-13T07:24:55;10.50;1.00
12438;DHT22;6283;51.330;12.374;2023-03-13T07:27:21;10.40;1.00
12438;DHT22;6283;51.330;12.374;2023-03-13T07:29:47;10.60;1.00
12438;DHT22;6283;51.330;12.374;2023-03-13T07:32:13;10.60;1.00
12438;DHT22;6283;51.330;12.374;2023-03-13T07:34:39;10.60;1.00
12438;DHT22;6283;51.330;12.374;2023-03-13T07:37:04;10.50;1.00
12438;DHT22;6283;51.330;12.374;2023-03-13T07:39:30;10.70;1.00
12438;DHT22;6283;51.330;12.374;2023-03-13T07:41:56;10.70;1.00
12438;DHT22;6283;51.330;12.374;2023-03-13T07:44:21;10.70;1.00
12438;DHT22;6283;51.330;12.374;2023-03-13T07:46:47;10.90;1.00
12438;DHT22;6283;51.330;12.374;2023-03-13T07:49:14;10.90;1.00
12438;DHT22;6283;51.330;12.374;2023-03-13T07:51:40;10.80;1.00
12438;DHT22;6283;51.330;12.374;2023-03-13T07:54:06;11.00;1.00
12438;DHT22;6283;51.330;12.374;2023-03-13T07:56:32;11.10;1.00
12438;DHT22;6283;51.330;12.374;2023-03-13T07:58:57;11.00;1.00
12438;DHT22;6283;51.330;12.374;2023-03-13T08:01:25;11.20;1.00
12438;DHT22;6283;51.330;12.374;2023-03-13T08:03:52;11.10;1.00
12438;DHT22;6283;51.330;12.374;2023-03-13T08:06:24;11.20;1.00
12438;DHT22;6283;51.330;12.374;2023-03-13T08:08:50;11.40;1.00
12438;DHT22;6283;51.330;12.374;2023-03-13T08:11:17;11.50;1.00
12438;DHT22;6283;51.330;12.374;2023-03-13T08:13:44;11.60;1.00
12438;DHT22;6283;51.330;12.374;2023-03-13T08:16:13;11.30;1.00
12438;DHT22;6283;51.330;12.374;2023-03-13T08:18:41;11.60;1.00
12438;DHT22;6283;51.330;12.374;2023-03-13T08:21:10;11.50;1.00
12438;DHT22;6283;51.330;12.374;2023-03-13T08:23:35;11.50;1.00
12438;DHT22;6283;51.330;12.374;2023-03-13T08:26:07;11.60;1.00
12438;DHT22;6283;51.330;12.374;2023-03-13T08:28:33;11.70;1.00
12438;DHT22;6283;51.330;12.374;2023-03-13T08:31:06;11.60;1.00
12438;DHT22;6283;51.330;12.374;2023-03-13T08:33:31;11.60;1.00
12438;DHT22;6283;51.330;12.374;2023-03-13T08:35:57;11.50;1.00
12438;DHT22;6283;51.330;12.374;2023-03-13T08:38:23;11.40;1.00
12438;DHT22;6283;51.330;12.374;2023-03-13T08:40:48;11.70;1.00
12438;DHT22;6283;51.330;12.374;2023-03-13T08:43:15;11.50;1.00
12438;DHT22;6283;51.330;12.374;2023-03-13T08:45:41;11.40;1.00
12438;DHT22;6283;51.330;12.374;2023-03-13T08:48:07;11.60;1.00
12438;DHT22;6283;51.330;12.374;2023-03-13T08:50:32;11.50;1.00
12438;DHT22;6283;51.330;12.374;2023-03-13T08:52:58;11.70;1.00
12438;DHT22;6283;51.330;12.374;2023-03-13T08:55:23;11.80;1.00
12438;DHT22;6283;51.330;12.374;2023-03-13T08:57:49;11.80;1.00
12438;DHT22;6283;51.330;12.374;2023-03-13T09:00:15;11.60;1.00
12438;DHT22;6283;51.330;12.374;2023-03-13T09:02:41;11.70;1.00
12438;DHT22;6283;51.330;12.374;2023-03-13T09:05:07;11.80;1.00
12438;DHT22;6283;51.330;12.374;2023-03-13T09:07:33;11.80;1.00
12438;DHT22;6283;51.330;12.374;2023-03-13T09:09:59;11.60;1.00
12438;DHT22;6283;51.330;12.374;2023-03-13T09:12:24;11.90;1.00
12438;DHT22;6283;51.330;12.374;2023-03-13T09:14:51;11.60;1.00
12438;DHT22;6283;51.330;12.374;2023-03-13T09:17:17;11.70;1.00
12438;DHT22;6283;51.330;12.374;2023-03-13T09:19:43;11.60;1.00
12438;DHT22;6283;51.330;12.374;2023-03-13T09:22:08;11.80;1.00
12438;DHT22;6283;51.330;12.374;2023-03-13T09:24:34;11.70;1.00
12438;DHT22;6283;51.330;12.374;2023-03-13T09:27:00;11.70;1.00
12438;DHT22;6283;51.330;12.374;2023-03-13T09:29:25;11.70;1.00
12438;DHT22;6283;51.330;12.374;2023-03-13T09:31:51;11.80;1.00
12438;DHT22;6283;51.330;12.374;2023-03-13T09:34:16;11.80;1.00
12438;DHT22;6283;51.330;12.374;2023-03-13T09:36:42;11.90;1.00
12438;DHT22;6283;51.330;12.374;2023-03-13T09:39:08;11.90;1.00
12438;DHT22;6283;51.330;12.374;2023-03-13T09:41:35;12.10;1.00
12438;DHT22;6283;51.330;12.374;2023-03-13T09:49:29;12.20;1.00
12438;DHT22;6283;51.330;12.374;2023-03-13T09:52:16;12.30;1.00
12438;DHT22;6283;51.330;12.374;2023-03-13T09:57:48;12.30;1.00
12438;DHT22;6283;51.330;12.374;2023-03-13T10:00:21;12.40;1.00
12438;DHT22;6283;51.330;12.374;2023-03-13T10:03:11;12.40;1.00
12438;DHT22;6283;51.330;12.374;2023-03-13T10:05:44;12.50;1.00
12438;DHT22;6283;51.330;12.374;2023-03-13T10:08:19;12.70;1.00
12438;DHT22;6283;51.330;12.374;2023-03-13T10:13:45;12.60;1.00
12438;DHT22;6283;51.330;12.374;2023-03-13T10:16:24;12.80;1.00
12438;DHT22;6283;51.330;12.374;2023-03-13T10:18:57;12.90;1.00
12438;DHT22;6283;51.330;12.374;2023-03-13T10:21:30;12.90;1.00
12438;DHT22;6283;51.330;12.374;2023-03-13T10:24:04;13.10;1.00
12438;DHT22;6283;51.330;12.374;2023-03-13T10:26:35;13.40;1.00
12438;DHT22;6283;51.330;12.374;2023-03-13T10:29:21;13.20;1.00
12438;DHT22;6283;51.330;12.374;2023-03-13T10:31:58;13.50;1.00
12438;DHT22;6283;51.330;12.374;2023-03-13T10:37:18;13.10;1.00
12438;DHT22;6283;51.330;12.374;2023-03-13T10:39:44;13.20;1.00
12438;DHT22;6283;51.330;12.374;2023-03-13T10:42:15;13.30;1.00
12438;DHT22;6283;51.330;12.374;2023-03-13T10:44:46;13.40;1.00
12438;DHT22;6283;51.330;12.374;2023-03-13T10:47:13;13.40;1.00
12438;DHT22;6283;51.330;12.374;2023-03-13T10:49:48;13.50;1.00
12438;DHT22;6283;51.330;12.374;2023-03-13T10:52:40;13.50;1.00
12438;DHT22;6283;51.330;12.374;2023-03-13T10:55:11;13.80;1.00
12438;DHT22;6283;51.330;12.374;2023-03-13T10:57:38;13.70;1.00
12438;DHT22;6283;51.330;12.374;2023-03-13T11:00:27;13.50;1.00
12438;DHT22;6283;51.330;12.374;2023-03-13T11:02:55;13.50;1.00
12438;DHT22;6283;51.330;12.374;2023-03-13T11:05:39;13.70;1.00
12438;DHT22;6283;51.330;12.374;2023-03-13T11:08:15;13.60;1.00
12438;DHT22;6283;51.330;12.374;2023-03-13T11:11:03;13.80;1.00
12438;DHT22;6283;51.330;12.374;2023-03-13T11:13:41;13.90;1.00
12438;DHT22;6283;51.330;12.374;2023-03-13T11:19:14;14.10;1.00
12438;DHT22;6283;51.330;12.374;2023-03-13T11:25:17;14.40;1.00
12438;DHT22;6283;51.330;12.374;2023-03-13T11:31:23;14.50;1.00
12438;DHT22;6283;51.330;12.374;2023-03-13T11:34:18;14.70;1.00
12438;DHT22;6283;51.330;12.374;2023-03-13T11:47:40;15.40;99.90
12438;DHT22;6283;51.330;12.374;2023-03-13T11:56:16;15.50;99.90
12438;DHT22;6283;51.330;12.374;2023-03-13T12:01:25;16.00;99.90
12438;DHT22;6283;51.330;12.374;2023-03-13T12:04:12;16.30;99.90
12438;DHT22;6283;51.330;12.374;2023-03-13T12:06:57;16.60;99.90
12438;DHT22;6283;51.330;12.374;2023-03-13T12:09:35;16.90;99.90
12438;DHT22;6283;51.330;12.374;2023-03-13T12:15:15;17.50;99.90
12438;DHT22;6283;51.330;12.374;2023-03-13T12:18:39;17.60;99.90
12438;DHT22;6283;51.330;12.374;2023-03-13T12:26:12;17.20;99.90
12438;DHT22;6283;51.330;12.374;2023-03-13T12:28:44;17.00;99.90
12438;DHT22;6283;51.330;12.374;2023-03-13T12:34:00;16.60;99.90
12438;DHT22;6283;51.330;12.374;2023-03-13T12:44:34;16.40;99.90
12438;DHT22;6283;51.330;12.374;2023-03-13T12:47:21;16.50;99.90
12438;DHT22;6283;51.330;12.374;2023-03-13T13:00:21;16.10;99.90
12438;DHT22;6283;51.330;12.374;2023-03-13T13:02:59;16.10;99.90
12438;DHT22;6283;51.330;12.374;2023-03-13T13:05:26;16.00;99.90
12438;DHT22;6283;51.330;12.374;2023-03-13T13:07:54;16.00;99.90
12438;DHT22;6283;51.330;12.374;2023-03-13T13:10:22;16.00;99.90
12438;DHT22;6283;51.330;12.374;2023-03-13T13:15:41;16.00;99.90
12438;DHT22;6283;51.330;12.374;2023-03-13T13:18:26;16.00;99.90
12438;DHT22;6283;51.330;12.374;2023-03-13T13:23:28;16.00;99.90
12438;DHT22;6283;51.330;12.374;2023-03-13T13:45:02;16.40;99.90
12438;DHT22;6283;51.330;12.374;2023-03-13T13:47:29;16.40;99.90
12438;DHT22;6283;51.330;12.374;2023-03-13T13:49:57;16.30;99.90
12438;DHT22;6283;51.330;12.374;2023-03-13T13:52:37;16.30;99.90
12438;DHT22;6283;51.330;12.374;2023-03-13T13:55:40;16.30;99.90
12438;DHT22;6283;51.330;12.374;2023-03-13T13:58:22;16.30;99.90
12438;DHT22;6283;51.330;12.374;2023-03-13T14:00:54;16.30;99.90
12438;DHT22;6283;51.330;12.374;2023-03-13T14:03:24;16.30;99.90
12438;DHT22;6283;51.330;12.374;2023-03-13T14:05:56;16.30;99.90
12438;DHT22;6283;51.330;12.374;2023-03-13T14:08:32;16.40;99.90
12438;DHT22;6283;51.330;12.374;2023-03-13T14:11:52;16.40;99.90
12438;DHT22;6283;51.330;12.374;2023-03-13T14:14:19;16.40;99.90
12438;DHT22;6283;51.330;12.374;2023-03-13T14:16:50;16.50;99.90
12438;DHT22;6283;51.330;12.374;2023-03-13T14:19:35;16.60;99.90
12438;DHT22;6283;51.330;12.374;2023-03-13T14:22:10;16.70;99.90
12438;DHT22;6283;51.330;12.374;2023-03-13T14:24:36;16.70;99.90
12438;DHT22;6283;51.330;12.374;2023-03-13T14:27:14;16.60;99.90
12438;DHT22;6283;51.330;12.374;2023-03-13T14:29:40;16.60;99.90
12438;DHT22;6283;51.330;12.374;2023-03-13T14:32:06;16.60;99.90
12438;DHT22;6283;51.330;12.374;2023-03-13T14:34:32;16.60;99.90
12438;DHT22;6283;51.330;12.374;2023-03-13T14:36:59;16.60;99.90
12438;DHT22;6283;51.330;12.374;2023-03-13T14:44:35;16.50;99.90
12438;DHT22;6283;51.330;12.374;2023-03-13T14:49:45;16.40;99.90
12438;DHT22;6283;51.330;12.374;2023-03-13T14:52:24;16.40;99.90
12438;DHT22;6283;51.330;12.374;2023-03-13T14:54:58;16.40;99.90
12438;DHT22;6283;51.330;12.374;2023-03-13T14:57:27;16.50;99.90
12438;DHT22;6283;51.330;12.374;2023-03-13T14:59:54;16.50;99.90
12438;DHT22;6283;51.330;12.374;2023-03-13T15:02:27;16.60;99.90
12438;DHT22;6283;51.330;12.374;2023-03-13T15:12:50;17.90;99.90
12438;DHT22;6283;51.330;12.374;2023-03-13T15:15:17;18.20;99.90
12438;DHT22;6283;51.330;12.374;2023-03-13T15:17:42;18.40;99.90
12438;DHT22;6283;51.330;12.374;2023-03-13T15:20:11;18.40;99.90
12438;DHT22;6283;51.330;12.374;2023-03-13T15:22:40;18.20;99.90
12438;DHT22;6283;51.330;12.374;2023-03-13T15:25:18;17.90;99.90
12438;DHT22;6283;51.330;12.374;2023-03-13T15:27:45;17.60;99.90
12438;DHT22;6283;51.330;12.374;2023-03-13T15:30:20;17.30;99.90
12438;DHT22;6283;51.330;12.374;2023-03-13T15:32:49;17.10;99.90
12438;DHT22;6283;51.330;12.374;2023-03-13T15:35:28;16.90;99.90
12438;DHT22;6283;51.330;12.374;2023-03-13T15:37:56;16.80;99.90
12438;DHT22;6283;51.330;12.374;2023-03-13T15:40:22;16.60;99.90
12438;DHT22;6283;51.330;12.374;2023-03-13T15:42:49;16.50;99.90
12438;DHT22;6283;51.330;12.374;2023-03-13T15:45:15;16.50;99.90
12438;DHT22;6283;51.330;12.374;2023-03-13T15:47:40;16.40;99.90
12438;DHT22;6283;51.330;12.374;2023-03-13T15:50:18;16.40;99.90
12438;DHT22;6283;51.330;12.374;2023-03-13T15:52:43;16.30;99.90
12438;DHT22;6283;51.330;12.374;2023-03-13T15:55:10;16.30;99.90
12438;DHT22;6283;51.330;12.374;2023-03-13T15:57:41;16.30;99.90
12438;DHT22;6283;51.330;12.374;2023-03-13T16:00:18;16.30;99.90
12438;DHT22;6283;51.330;12.374;2023-03-13T16:02:44;16.30;99.90
12438;DHT22;6283;51.330;12.374;2023-03-13T16:05:10;16.50;99.90
12438;DHT22;6283;51.330;12.374;2023-03-13T16:07:35;16.70;99.90
12438;DHT22;6283;51.330;12.374;2023-03-13T16:10:01;16.90;99.90
12438;DHT22;6283;51.330;12.374;2023-03-13T16:12:27;17.10;99.90
12438;DHT22;6283;51.330;12.374;2023-03-13T16:14:52;17.50;99.90
12438;DHT22;6283;51.330;12.374;2023-03-13T16:17:19;17.80;99.90
12438;DHT22;6283;51.330;12.374;2023-03-13T16:19:46;18.00;99.90
12438;DHT22;6283;51.330;12.374;2023-03-13T16:22:12;18.00;99.90
12438;DHT22;6283;51.330;12.374;2023-03-13T16:24:39;18.10;99.90
12438;DHT22;6283;51.330;12.374;2023-03-13T16:27:14;18.30;99.90
12438;DHT22;6283;51.330;12.374;2023-03-13T16:29:41;18.30;99.90
12438;DHT22;6283;51.330;12.374;2023-03-13T16:32:10;18.30;99.90
12438;DHT22;6283;51.330;12.374;2023-03-13T16:34:37;18.20;99.90
12438;DHT22;6283;51.330;12.374;2023-03-13T16:37:14;17.90;99.90
12438;DHT22;6283;51.330;12.374;2023-03-13T16:39:40;17.70;99.90
12438;DHT22;6283;51.330;12.374;2023-03-13T16:42:06;17.40;99.90
12438;DHT22;6283;51.330;12.374;2023-03-13T16:44:32;17.20;99.90
12438;DHT22;6283;51.330;12.374;2023-03-13T16:46:57;17.00;99.90
12438;DHT22;6283;51.330;12.374;2023-03-13T16:49:23;16.80;99.90
12438;DHT22;6283;51.330;12.374;2023-03-13T16:51:48;16.60;99.90
12438;DHT22;6283;51.330;12.374;2023-03-13T16:54:14;16.50;99.90
12438;DHT22;6283;51.330;12.374;2023-03-13T16:56:41;16.40;99.90
12438;DHT22;6283;51.330;12.374;2023-03-13T16:59:16;16.30;99.90
12438;DHT22;6283;51.330;12.374;2023-03-13T17:01:45;16.20;99.90
12438;DHT22;6283;51.330;12.374;2023-03-13T17:04:11;16.20;99.90
12438;DHT22;6283;51.330;12.374;2023-03-13T17:06:39;16.10;99.90
12438;DHT22;6283;51.330;12.374;2023-03-13T17:09:16;16.10;99.90
12438;DHT22;6283;51.330;12.374;2023-03-13T17:11:42;16.00;99.90
12438;DHT22;6283;51.330;12.374;2023-03-13T17:14:09;16.00;99.90
12438;DHT22;6283;51.330;12.374;2023-03-13T17:16:37;16.00;99.90
12438;DHT22;6283;51.330;12.374;2023-03-13T17:19:04;16.00;99.90
12438;DHT22;6283;51.330;12.374;2023-03-13T17:21:33;15.90;99.90
12438;DHT22;6283;51.330;12.374;2023-03-13T17:24:00;15.90;99.90
12438;DHT22;6283;51.330;12.374;2023-03-13T17:26:28;15.90;99.90
12438;DHT22;6283;51.330;12.374;2023-03-13T17:28:57;15.90;99.90
12438;DHT22;6283;51.330;12.374;2023-03-13T17:31:24;15.80;99.90
12438;DHT22;6283;51.330;12.374;2023-03-13T17:33:50;15.80;99.90
12438;DHT22;6283;51.330;12.374;2023-03-13T17:36:20;15.80;99.90
12438;DHT22;6283;51.330;12.374;2023-03-13T17:38:48;15.80;99.90
12438;DHT22;6283;51.330;12.374;2023-03-13T17:41:16;15.80;99.90
12438;DHT22;6283;51.330;12.374;2023-03-13T17:43:42;15.70;99.90
12438;DHT22;6283;51.330;12.374;2023-03-13T17:46:23;15.70;99.90
12438;DHT22;6283;51.330;12.374;2023-03-13T17:48:51;15.80;99.90
12438;DHT22;6283;51.330;12.374;2023-03-13T17:51:23;15.70;99.90
12438;DHT22;6283;51.330;12.374;2023-03-13T17:53:50;15.70;99.90
12438;DHT22;6283;51.330;12.374;2023-03-13T17:56:30;15.70;99.90
12438;DHT22;6283;51.330;12.374;2023-03-13T17:58:58;15.70;99.90